createdAt,value
2023-02-19T00:02:01.299Z,99375.74
2023-02-19T00:04:29.652Z,99381.29
2023-02-19T00:06:58.181Z,99381.64
2023-02-19T00:09:27.750Z,99384.98
2023-02-19T00:11:55.908Z,99385.39
2023-02-19T00:14:24.115Z,99380.40
2023-02-19T00:16:52.241Z,99379.38
2023-02-19T00:19:25.042Z,99375.27
2023-02-19T00:21:53.361Z,99375.50
2023-02-19T00:24:21.978Z,99373.13
2023-02-19T00:26:53.557Z,99373.58
2023-02-19T00:29:22.057Z,99372.27
2023-02-19T00:31:51.132Z,99372.73
2023-02-19T00:34:20.405Z,99374.22
2023-02-19T00:36:49.144Z,99371.55
2023-02-19T00:39:18.792Z,99372.00
2023-02-19T00:41:47.546Z,99373.62
2023-02-19T00:44:16.630Z,99375.29
2023-02-19T00:46:46.742Z,99381.20
2023-02-19T00:49:20.284Z,99381.42
2023-02-19T00:51:49.904Z,99383.60
2023-02-19T00:54:20.189Z,99384.67
2023-02-19T00:56:49.123Z,99382.69
2023-02-19T00:59:17.992Z,99384.95
2023-02-19T01:01:46.399Z,99384.13
2023-02-19T01:04:16.590Z,99386.79
2023-02-19T01:06:44.937Z,99385.81
2023-02-19T01:09:13.779Z,99395.16
2023-02-19T01:11:48.212Z,99398.17
2023-02-19T01:14:16.666Z,99398.54
2023-02-19T01:16:44.856Z,99401.84
2023-02-19T01:19:14.010Z,99404.95
2023-02-19T01:21:42.713Z,99406.14
2023-02-19T01:24:16.774Z,99409.02
2023-02-19T01:26:45.343Z,99411.20
2023-02-19T01:29:14.384Z,99411.35
2023-02-19T01:31:42.961Z,99403.19
2023-02-19T01:34:12.616Z,99401.40
2023-02-19T01:36:42.222Z,99400.86
2023-02-19T01:39:10.746Z,99405.17
2023-02-19T01:41:42.226Z,99411.73
2023-02-19T01:44:18.316Z,99410.38
2023-02-19T01:46:48.607Z,99414.06
2023-02-19T01:49:20.982Z,99414.44
2023-02-19T01:51:54.641Z,99416.70
2023-02-19T01:54:23.250Z,99416.04
2023-02-19T01:56:51.996Z,99416.77
2023-02-19T01:59:20.481Z,99417.52
2023-02-19T02:01:49.221Z,99420.14
2023-02-19T02:04:17.477Z,99423.64
2023-02-19T02:06:52.801Z,99429.40
2023-02-19T02:09:43.418Z,99424.27
2023-02-19T02:12:12.959Z,99422.61
2023-02-19T02:14:45.978Z,99429.42
2023-02-19T02:17:20.581Z,99439.50
2023-02-19T02:20:20.175Z,99446.44
2023-02-19T02:23:07.108Z,99444.17
2023-02-19T02:26:13.389Z,99455.05
2023-02-19T02:29:09.966Z,99460.37
2023-02-19T02:31:39.895Z,99462.04
2023-02-19T02:34:31.944Z,99459.42
2023-02-19T02:37:00.157Z,99465.29
2023-02-19T02:39:29.016Z,99471.15
2023-02-19T02:42:18.335Z,99468.73
2023-02-19T02:45:10.202Z,99464.60
2023-02-19T02:47:51.577Z,99470.38
2023-02-19T02:50:32.794Z,99467.99
2023-02-19T02:53:23.689Z,99473.70
2023-02-19T02:55:53.253Z,99476.02
2023-02-19T02:58:23.598Z,99478.50
2023-02-19T03:01:24.195Z,99479.41
2023-02-19T03:04:02.316Z,99490.35
2023-02-19T03:06:32.011Z,99489.54
2023-02-19T03:09:12.119Z,99495.79
2023-02-19T03:12:01.391Z,99498.04
2023-02-19T03:14:54.895Z,99506.34
2023-02-19T03:17:53.235Z,99511.70
2023-02-19T03:20:23.224Z,99507.15
2023-02-19T03:22:52.390Z,99512.25
2023-02-19T03:25:47.257Z,99513.57
2023-02-19T03:28:17.986Z,99506.63
2023-02-19T03:30:49.915Z,99510.69
2023-02-19T03:33:26.686Z,99518.89
2023-02-19T03:36:00.401Z,99520.55
2023-02-19T03:38:29.472Z,99520.51
2023-02-19T03:41:11.355Z,99518.26
2023-02-19T03:43:53.741Z,99520.61
2023-02-19T03:46:25.910Z,99531.03
2023-02-19T03:48:59.735Z,99540.05
2023-02-19T03:51:39.208Z,99539.14
2023-02-19T03:54:13.607Z,99544.89
2023-02-19T03:56:47.957Z,99548.56
2023-02-19T03:59:28.971Z,99552.91
2023-02-19T04:02:03.375Z,99556.77
2023-02-19T04:04:35.816Z,99555.11
2023-02-19T04:07:04.486Z,99548.77
2023-02-19T04:09:42.254Z,99554.52
2023-02-19T04:12:13.478Z,99547.73
2023-02-19T04:14:51.733Z,99549.55
2023-02-19T04:17:54.648Z,99548.09
2023-02-19T04:20:23.684Z,99549.89
2023-02-19T04:22:51.843Z,99547.70
2023-02-19T04:25:20.545Z,99551.36
2023-02-19T04:27:49.306Z,99549.13
2023-02-19T04:30:17.558Z,99554.30
2023-02-19T04:32:45.763Z,99559.85
2023-02-19T04:35:18.153Z,99569.34
2023-02-19T04:37:46.693Z,99573.52
2023-02-19T04:40:15.139Z,99569.48
2023-02-19T04:42:43.325Z,99569.39
2023-02-19T04:45:11.934Z,99578.78
2023-02-19T04:47:40.246Z,99583.35
2023-02-19T04:50:08.831Z,99581.68
2023-02-19T04:52:37.403Z,99586.21
2023-02-19T04:55:06.154Z,99585.42
2023-02-19T04:57:35.611Z,99588.03
2023-02-19T05:00:29.422Z,99589.42
2023-02-19T05:02:59.148Z,99590.13
2023-02-19T05:05:28.066Z,99590.18
2023-02-19T05:07:57.014Z,99591.79
2023-02-19T05:10:27.572Z,99601.86
2023-02-19T05:12:57.888Z,99611.03
2023-02-19T05:15:26.268Z,99609.50
2023-02-19T05:17:54.691Z,99615.56
2023-02-19T05:20:23.185Z,99614.54
2023-02-19T05:22:51.887Z,99616.61
2023-02-19T05:25:20.296Z,99621.61
2023-02-19T05:27:49.122Z,99624.54
2023-02-19T05:30:17.781Z,99627.98
2023-02-19T05:32:48.152Z,99621.10
2023-02-19T05:35:16.367Z,99620.08
2023-02-19T05:37:44.541Z,99620.06
2023-02-19T05:40:12.944Z,99621.61
2023-02-19T05:43:00.994Z,99622.11
2023-02-19T05:45:29.602Z,99626.54
2023-02-19T05:47:58.432Z,99634.38
2023-02-19T05:50:26.710Z,99640.08
2023-02-19T05:52:55.558Z,99640.96
2023-02-19T05:55:24.261Z,99639.20
2023-02-19T05:57:52.728Z,99639.32
2023-02-19T06:00:21.901Z,99646.06
2023-02-19T06:02:50.139Z,99648.98
2023-02-19T06:05:18.424Z,99648.63
2023-02-19T06:07:46.647Z,99655.08
2023-02-19T06:10:15.418Z,99659.10
2023-02-19T06:12:43.882Z,99665.27
2023-02-19T06:15:13.346Z,99665.73
2023-02-19T06:17:41.746Z,99666.98
2023-02-19T06:20:10.311Z,99664.06
2023-02-19T06:22:38.539Z,99657.53
2023-02-19T06:25:08.097Z,99656.05
2023-02-19T06:27:36.662Z,99651.23
2023-02-19T06:30:06.278Z,99646.27
2023-02-19T06:32:34.605Z,99639.61
2023-02-19T06:35:03.472Z,99637.57
2023-02-19T06:37:32.613Z,99644.02
2023-02-19T06:40:00.937Z,99642.56
2023-02-19T06:42:32.995Z,99640.98
2023-02-19T06:45:01.346Z,99640.14
2023-02-19T06:47:33.097Z,99639.23
2023-02-19T06:50:01.469Z,99638.55
2023-02-19T06:52:31.096Z,99647.20
2023-02-19T06:55:00.254Z,99652.84
2023-02-19T06:57:29.073Z,99653.73
2023-02-19T06:59:57.294Z,99655.48
2023-02-19T07:02:26.458Z,99649.73
2023-02-19T07:04:55.165Z,99650.02
2023-02-19T07:07:23.737Z,99652.06
2023-02-19T07:09:51.937Z,99653.95
2023-02-19T07:12:20.198Z,99649.43
2023-02-19T07:14:52.028Z,99649.13
2023-02-19T07:17:20.740Z,99651.55
2023-02-19T07:19:48.908Z,99653.38
2023-02-19T07:22:17.416Z,99651.38
2023-02-19T07:24:47.859Z,99650.08
2023-02-19T07:27:16.260Z,99649.06
2023-02-19T07:29:44.885Z,99650.40
2023-02-19T07:32:16.124Z,99652.92
2023-02-19T07:34:44.478Z,99643.82
2023-02-19T07:37:13.211Z,99645.73
2023-02-19T07:39:41.854Z,99645.02
2023-02-19T07:42:09.992Z,99644.11
2023-02-19T07:44:39.593Z,99646.20
2023-02-19T07:47:10.887Z,99645.27
2023-02-19T07:49:39.201Z,99650.25
2023-02-19T07:52:08.767Z,99651.04
2023-02-19T07:54:37.885Z,99647.02
2023-02-19T07:57:06.579Z,99645.73
2023-02-19T07:59:34.873Z,99655.11
2023-02-19T08:02:32.366Z,99650.60
2023-02-19T08:05:00.785Z,99654.84
2023-02-19T08:07:34.170Z,99655.52
2023-02-19T08:10:21.948Z,99652.92
2023-02-19T08:13:16.943Z,99659.13
2023-02-19T08:15:46.414Z,99664.58
2023-02-19T08:18:19.742Z,99657.33
2023-02-19T08:20:47.918Z,99661.48
2023-02-19T08:23:16.758Z,99670.75
2023-02-19T08:25:45.946Z,99673.58
2023-02-19T08:28:14.715Z,99678.41
2023-02-19T08:30:46.715Z,99682.63
2023-02-19T08:33:17.904Z,99679.78
2023-02-19T08:35:46.848Z,99680.19
2023-02-19T08:38:16.637Z,99686.63
2023-02-19T08:40:45.179Z,99689.86
2023-02-19T08:43:15.084Z,99688.67
2023-02-19T08:45:44.424Z,99688.00
2023-02-19T08:48:12.798Z,99685.48
2023-02-19T08:50:41.405Z,99681.15
2023-02-19T08:53:10.744Z,99679.65
2023-02-19T08:55:39.522Z,99681.36
2023-02-19T08:58:08.824Z,99682.95
2023-02-19T09:00:37.259Z,99685.10
2023-02-19T09:03:09.896Z,99687.98
2023-02-19T09:05:39.890Z,99684.98
2023-02-19T09:08:09.204Z,99685.35
2023-02-19T09:10:37.900Z,99681.32
2023-02-19T09:13:06.237Z,99675.45
2023-02-19T09:15:34.843Z,99674.09
2023-02-19T09:18:02.986Z,99670.98
2023-02-19T09:20:32.485Z,99666.77
2023-02-19T09:23:00.785Z,99665.83
2023-02-19T09:25:29.051Z,99667.99
2023-02-19T09:27:57.303Z,99666.33
2023-02-19T09:30:25.572Z,99668.52
2023-02-19T09:32:54.252Z,99670.79
2023-02-19T09:35:22.469Z,99672.63
2023-02-19T09:37:50.657Z,99672.02
2023-02-19T09:40:21.853Z,99673.45
2023-02-19T09:42:53.410Z,99680.66
2023-02-19T09:45:23.420Z,99681.13
2023-02-19T09:47:56.241Z,99684.36
2023-02-19T09:50:36.870Z,99686.61
2023-02-19T09:53:06.935Z,99687.63
2023-02-19T09:55:38.082Z,99683.73
2023-02-19T09:58:31.816Z,99676.88
2023-02-19T10:01:02.279Z,99664.54
2023-02-19T10:03:34.566Z,99656.92
2023-02-19T10:06:11.254Z,99650.58
2023-02-19T10:08:40.347Z,99648.61
2023-02-19T10:11:10.212Z,99646.25
2023-02-19T10:14:09.336Z,99638.52
2023-02-19T10:16:41.480Z,99634.36
2023-02-19T10:19:10.939Z,99629.67
2023-02-19T10:21:39.137Z,99619.74
2023-02-19T10:24:07.864Z,99618.59
2023-02-19T10:26:36.965Z,99618.23
2023-02-19T10:29:06.290Z,99616.23
2023-02-19T10:31:35.566Z,99624.11
2023-02-19T10:34:07.669Z,99621.46
2023-02-19T10:36:39.765Z,99618.91
2023-02-19T10:39:44.190Z,99609.59
2023-02-19T10:42:22.582Z,99601.75
2023-02-19T10:45:01.869Z,99597.21
2023-02-19T10:47:31.079Z,99592.86
2023-02-19T10:50:00.303Z,99586.02
2023-02-19T10:52:31.584Z,99581.22
2023-02-19T10:55:19.505Z,99573.55
2023-02-19T10:57:50.612Z,99572.81
2023-02-19T11:00:30.822Z,99557.29
2023-02-19T11:03:14.944Z,99553.20
2023-02-19T11:06:02.599Z,99547.38
2023-02-19T11:08:37.140Z,99543.37
2023-02-19T11:11:05.566Z,99535.43
2023-02-19T11:13:38.017Z,99532.56
2023-02-19T11:16:06.918Z,99524.21
2023-02-19T11:18:39.360Z,99524.94
2023-02-19T11:21:07.690Z,99524.10
2023-02-19T11:23:44.462Z,99524.23
2023-02-19T11:26:21.396Z,99519.61
2023-02-19T11:29:00.483Z,99518.06
2023-02-19T11:31:32.132Z,99517.75
2023-02-19T11:34:02.199Z,99515.82
2023-02-19T11:36:35.076Z,99514.49
2023-02-19T11:39:15.794Z,99514.05
2023-02-19T11:42:23.179Z,99513.66
2023-02-19T11:44:55.358Z,99517.52
2023-02-19T11:47:50.867Z,99517.67
2023-02-19T11:50:29.184Z,99520.16
2023-02-19T11:53:10.573Z,99524.54
2023-02-19T11:56:06.834Z,99530.11
2023-02-19T11:58:53.769Z,99525.77
2023-02-19T12:01:31.119Z,99521.95
2023-02-19T12:04:37.909Z,99520.63
2023-02-19T12:07:23.224Z,99525.50
2023-02-19T12:10:07.248Z,99529.25
2023-02-19T12:12:49.140Z,99529.09
2023-02-19T12:15:27.645Z,99534.48
2023-02-19T12:18:14.892Z,99537.79
2023-02-19T12:20:50.264Z,99534.41
2023-02-19T12:23:53.191Z,99535.86
2023-02-19T12:26:33.999Z,99536.41
2023-02-19T12:29:12.570Z,99530.13
2023-02-19T12:32:26.211Z,99532.75
2023-02-19T12:34:57.291Z,99527.12
2023-02-19T12:37:48.470Z,99528.13
2023-02-19T12:40:27.642Z,99526.98
2023-02-19T12:43:26.765Z,99528.02
2023-02-19T12:45:59.101Z,99522.20
2023-02-19T12:48:36.510Z,99524.83
2023-02-19T12:51:32.586Z,99526.11
2023-02-19T12:54:11.778Z,99533.09
2023-02-19T12:56:44.820Z,99534.19
2023-02-19T12:59:16.750Z,99537.52
2023-02-19T13:02:14.911Z,99541.86
2023-02-19T13:04:48.536Z,99538.33
2023-02-19T13:08:07.860Z,99542.30
2023-02-19T13:10:51.987Z,99543.70
2023-02-19T13:13:44.360Z,99542.43
2023-02-19T13:16:18.503Z,99540.77
2023-02-19T13:18:54.806Z,99538.57
2023-02-19T13:21:43.417Z,99538.85
2023-02-19T13:24:17.584Z,99539.89
2023-02-19T13:27:24.608Z,99538.77
2023-02-19T13:30:01.705Z,99537.00
2023-02-19T13:33:05.833Z,99533.71
2023-02-19T13:36:06.257Z,99531.79
2023-02-19T13:38:46.521Z,99531.80
2023-02-19T13:41:59.241Z,99531.54
2023-02-19T13:44:31.872Z,99533.51
2023-02-19T13:47:00.689Z,99528.49
2023-02-19T13:49:29.142Z,99525.27
2023-02-19T13:52:05.685Z,99528.98
2023-02-19T13:54:40.025Z,99526.64
2023-02-19T13:57:22.578Z,99534.02
2023-02-19T13:59:53.521Z,99532.71
2023-02-19T14:02:21.738Z,99534.58
2023-02-19T14:04:57.096Z,99535.54
2023-02-19T14:07:28.038Z,99539.27
2023-02-19T14:09:56.232Z,99538.11
2023-02-19T14:12:33.070Z,99539.39
2023-02-19T14:15:39.887Z,99538.73
2023-02-19T14:18:41.564Z,99535.39
2023-02-19T14:21:39.497Z,99535.81
2023-02-19T14:24:14.436Z,99538.66
2023-02-19T14:26:42.765Z,99539.06
2023-02-19T14:29:12.158Z,99533.77
2023-02-19T14:31:40.814Z,99538.33
2023-02-19T14:34:22.491Z,99542.73
2023-02-19T14:36:57.912Z,99543.61
2023-02-19T14:39:34.016Z,99542.97
2023-02-19T14:42:05.635Z,99539.02
2023-02-19T14:45:01.717Z,99540.09
2023-02-19T14:47:32.402Z,99537.92
2023-02-19T14:50:21.694Z,99534.00
2023-02-19T14:52:51.914Z,99538.54
2023-02-19T14:55:29.015Z,99539.78
2023-02-19T14:57:58.999Z,99536.56
2023-02-19T15:00:28.874Z,99532.27
2023-02-19T15:02:58.697Z,99537.67
2023-02-19T15:05:30.670Z,99540.54
2023-02-19T15:08:03.709Z,99544.93
2023-02-19T15:10:33.198Z,99545.02
2023-02-19T15:13:04.812Z,99551.31
2023-02-19T15:15:36.531Z,99549.31
2023-02-19T15:18:05.032Z,99551.42
2023-02-19T15:20:36.259Z,99555.47
2023-02-19T15:23:05.981Z,99549.33
2023-02-19T15:25:38.196Z,99554.59
2023-02-19T15:28:25.134Z,99552.21
2023-02-19T15:31:18.860Z,99557.97
2023-02-19T15:33:51.817Z,99561.89
2023-02-19T15:36:32.532Z,99567.00
2023-02-19T15:39:02.467Z,99569.48
2023-02-19T15:41:34.390Z,99571.10
2023-02-19T15:44:24.099Z,99576.54
2023-02-19T15:46:52.658Z,99574.50
2023-02-19T15:49:24.004Z,99573.85
2023-02-19T15:52:01.922Z,99583.02
2023-02-19T15:54:32.819Z,99583.61
2023-02-19T15:57:04.675Z,99585.54
2023-02-19T15:59:39.893Z,99588.36
2023-02-19T16:02:12.029Z,99585.48
2023-02-19T16:04:42.329Z,99584.65
2023-02-19T16:07:31.999Z,99587.59
2023-02-19T16:10:20.452Z,99590.73
2023-02-19T16:12:59.691Z,99592.17
2023-02-19T16:15:32.150Z,99594.49
2023-02-19T16:18:00.484Z,99593.17
2023-02-19T16:20:30.418Z,99588.72
2023-02-19T16:23:06.097Z,99590.45
2023-02-19T16:25:37.524Z,99593.10
2023-02-19T16:28:22.558Z,99599.23
2023-02-19T16:31:06.972Z,99604.50
2023-02-19T16:33:40.368Z,99599.21
2023-02-19T16:36:34.945Z,99599.11
2023-02-19T16:39:04.506Z,99597.98
2023-02-19T16:41:39.597Z,99598.55
2023-02-19T16:44:27.594Z,99599.13
2023-02-19T16:46:58.584Z,99600.92
2023-02-19T16:49:26.779Z,99597.51
2023-02-19T16:51:55.350Z,99597.04
2023-02-19T16:54:23.601Z,99608.83
2023-02-19T16:56:52.249Z,99609.92
2023-02-19T16:59:20.435Z,99608.61
2023-02-19T17:01:48.599Z,99607.95
2023-02-19T17:04:17.457Z,99613.18
2023-02-19T17:06:45.735Z,99610.48
2023-02-19T17:09:14.149Z,99609.33
2023-02-19T17:11:42.658Z,99607.49
2023-02-19T17:14:10.956Z,99601.89
2023-02-19T17:16:42.048Z,99601.05
2023-02-19T17:19:18.611Z,99600.08
2023-02-19T17:21:47.124Z,99598.58
2023-02-19T17:24:20.839Z,99594.50
2023-02-19T17:26:49.232Z,99591.50
2023-02-19T17:29:19.970Z,99593.16
2023-02-19T17:31:49.170Z,99589.98
2023-02-19T17:34:17.497Z,99586.61
2023-02-19T17:36:47.284Z,99587.08
2023-02-19T17:39:15.780Z,99591.48
2023-02-19T17:41:44.154Z,99599.56
2023-02-19T17:44:12.693Z,99602.29
2023-02-19T17:46:41.131Z,99602.61
2023-02-19T17:49:11.027Z,99601.54
2023-02-19T17:51:39.267Z,99604.07
2023-02-19T17:54:08.513Z,99607.11
2023-02-19T17:56:43.306Z,99605.48
2023-02-19T17:59:11.857Z,99608.66
2023-02-19T18:01:40.112Z,99614.25
2023-02-19T18:04:08.768Z,99615.16
2023-02-19T18:06:37.052Z,99618.63
2023-02-19T18:09:06.175Z,99619.15
2023-02-19T18:11:35.951Z,99619.14
2023-02-19T18:14:12.655Z,99618.82
2023-02-19T18:16:50.102Z,99615.68
2023-02-19T18:19:18.773Z,99620.36
2023-02-19T18:21:48.959Z,99616.38
2023-02-19T18:24:17.309Z,99617.63
2023-02-19T18:26:46.903Z,99619.85
2023-02-19T18:29:15.124Z,99622.61
2023-02-19T18:31:43.422Z,99631.38
2023-02-19T18:34:18.535Z,99635.68
2023-02-19T18:36:50.171Z,99637.02
2023-02-19T18:39:19.005Z,99639.91
2023-02-19T18:41:50.715Z,99652.82
2023-02-19T18:44:20.416Z,99652.61
2023-02-19T18:46:48.908Z,99652.48
2023-02-19T18:49:17.728Z,99650.98
2023-02-19T18:51:46.982Z,99653.63
2023-02-19T18:54:15.744Z,99652.85
2023-02-19T18:56:44.396Z,99650.42
2023-02-19T18:59:13.317Z,99654.98
2023-02-19T19:01:41.667Z,99653.90
2023-02-19T19:04:11.132Z,99654.63
2023-02-19T19:06:40.029Z,99654.01
2023-02-19T19:09:08.704Z,99656.29
2023-02-19T19:11:37.458Z,99655.35
2023-02-19T19:14:05.665Z,99658.37
2023-02-19T19:16:36.485Z,99661.25
2023-02-19T19:19:06.752Z,99658.96
2023-02-19T19:21:34.974Z,99662.48
2023-02-19T19:24:03.419Z,99662.15
2023-02-19T19:26:31.691Z,99662.35
2023-02-19T19:28:59.940Z,99671.00
2023-02-19T19:31:34.311Z,99672.96
2023-02-19T19:34:03.837Z,99676.44
2023-02-19T19:36:32.746Z,99682.81
2023-02-19T19:39:00.997Z,99692.81
2023-02-19T19:41:29.735Z,99697.02
2023-02-19T19:44:03.313Z,99704.98
2023-02-19T19:46:32.683Z,99713.76
2023-02-19T19:49:06.007Z,99716.70
2023-02-19T19:51:34.372Z,99721.18
2023-02-19T19:54:04.249Z,99719.62
2023-02-19T19:56:32.904Z,99728.41
2023-02-19T19:59:01.145Z,99731.70
2023-02-19T20:01:29.884Z,99734.12
2023-02-19T20:03:58.283Z,99734.68
2023-02-19T20:06:30.865Z,99736.44
2023-02-19T20:08:59.935Z,99732.15
2023-02-19T20:11:28.608Z,99734.23
2023-02-19T20:13:56.811Z,99737.40
2023-02-19T20:16:27.438Z,99733.65
2023-02-19T20:18:56.852Z,99741.45
2023-02-19T20:21:26.451Z,99744.05
2023-02-19T20:23:54.725Z,99747.01
2023-02-19T20:26:27.387Z,99750.83
2023-02-19T20:28:56.778Z,99755.54
2023-02-19T20:31:25.526Z,99756.91
2023-02-19T20:33:54.347Z,99758.65
2023-02-19T20:36:23.177Z,99759.89
2023-02-19T20:38:51.614Z,99763.91
2023-02-19T20:41:19.880Z,99765.20
2023-02-19T20:43:48.046Z,99764.58
2023-02-19T20:46:16.350Z,99771.36
2023-02-19T20:48:44.898Z,99776.61
2023-02-19T20:51:13.085Z,99782.02
2023-02-19T20:53:41.821Z,99786.38
2023-02-19T20:56:11.691Z,99794.90
2023-02-19T20:58:43.481Z,99797.76
2023-02-19T21:01:12.218Z,99793.71
2023-02-19T21:03:41.915Z,99797.23
2023-02-19T21:06:10.214Z,99799.73
2023-02-19T21:08:39.129Z,99802.22
2023-02-19T21:11:07.564Z,99803.32
2023-02-19T21:13:35.916Z,99803.39
2023-02-19T21:16:04.668Z,99802.93
2023-02-19T21:18:33.058Z,99801.08
2023-02-19T21:21:01.398Z,99802.20
2023-02-19T21:23:29.882Z,99808.30
2023-02-19T21:25:58.918Z,99815.05
2023-02-19T21:28:27.782Z,99819.59
2023-02-19T21:30:56.127Z,99822.39
2023-02-19T21:33:24.476Z,99826.27
2023-02-19T21:35:53.882Z,99825.63
2023-02-19T21:38:22.521Z,99827.55
2023-02-19T21:40:51.069Z,99827.79
2023-02-19T21:43:20.092Z,99830.95
2023-02-19T21:45:48.322Z,99835.64
2023-02-19T21:48:17.617Z,99836.72
2023-02-19T21:50:45.974Z,99841.08
2023-02-19T21:53:14.434Z,99845.23
2023-02-19T21:55:56.627Z,99843.57
2023-02-19T21:58:29.044Z,99848.59
2023-02-19T22:00:58.387Z,99849.80
2023-02-19T22:03:28.345Z,99855.73
2023-02-19T22:05:56.870Z,99856.60
2023-02-19T22:08:25.098Z,99860.08
2023-02-19T22:10:53.739Z,99857.70
2023-02-19T22:13:21.936Z,99860.00
2023-02-19T22:15:52.606Z,99861.94
2023-02-19T22:18:20.911Z,99862.15
2023-02-19T22:20:52.921Z,99864.59
2023-02-19T22:23:22.344Z,99863.97
2023-02-19T22:25:50.733Z,99860.58
2023-02-19T22:28:19.269Z,99863.00
2023-02-19T22:30:48.011Z,99860.11
2023-02-19T22:33:16.232Z,99863.24
2023-02-19T22:35:44.426Z,99861.08
2023-02-19T22:38:12.742Z,99865.06
2023-02-19T22:40:40.932Z,99862.15
2023-02-19T22:43:09.190Z,99863.20
2023-02-19T22:45:37.632Z,99865.66
2023-02-19T22:48:05.967Z,99865.15
2023-02-19T22:50:34.657Z,99866.36
2023-02-19T22:53:03.734Z,99869.45
2023-02-19T22:55:32.309Z,99875.50
2023-02-19T22:58:00.796Z,99881.20
2023-02-19T23:00:29.050Z,99881.41
2023-02-19T23:02:59.638Z,99876.64
2023-02-19T23:05:28.437Z,99878.90
2023-02-19T23:07:57.180Z,99885.34
2023-02-19T23:10:25.386Z,99883.54
2023-02-19T23:12:56.027Z,99883.46
2023-02-19T23:15:27.706Z,99888.34
2023-02-19T23:17:55.931Z,99893.41
2023-02-19T23:20:24.165Z,99892.27
2023-02-19T23:22:52.444Z,99890.11
2023-02-19T23:25:21.560Z,99890.34
2023-02-19T23:27:49.835Z,99888.52
2023-02-19T23:30:18.515Z,99893.39
2023-02-19T23:32:47.091Z,99897.90
2023-02-19T23:35:15.762Z,99897.27
2023-02-19T23:37:44.479Z,99902.84
2023-02-19T23:40:13.346Z,99903.05
2023-02-19T23:42:42.610Z,99898.63
2023-02-19T23:45:10.813Z,99903.64
2023-02-19T23:47:39.388Z,99903.52
2023-02-19T23:50:08.184Z,99898.91
2023-02-19T23:52:36.370Z,99901.17
2023-02-19T23:55:04.868Z,99905.35
2023-02-19T23:57:33.560Z,99904.68
